createdAt,value
2023-02-26T00:04:35.401Z,1.00
2023-02-26T00:09:38.842Z,0.73
2023-02-26T00:14:42.888Z,0.50
2023-02-26T00:19:47.887Z,0.67
2023-02-26T00:24:51.023Z,0.70
2023-02-26T00:29:54.809Z,0.53
2023-02-26T00:35:00.181Z,0.50
2023-02-26T00:40:16.115Z,0.80
2023-02-26T00:45:20.244Z,0.57
2023-02-26T00:50:27.270Z,1.00
2023-02-26T00:55:31.135Z,0.83
2023-02-26T01:00:34.706Z,0.63
2023-02-26T01:05:41.397Z,0.50
2023-02-26T01:10:45.199Z,0.67
2023-02-26T01:15:52.962Z,0.73
2023-02-26T01:21:03.870Z,0.60
2023-02-26T01:26:13.721Z,0.67
2023-02-26T01:31:26.821Z,1.17
2023-02-26T01:36:37.838Z,0.77
2023-02-26T01:41:48.011Z,0.57
2023-02-26T01:47:08.230Z,0.40
2023-02-26T01:52:47.026Z,0.50
2023-02-26T01:57:55.214Z,0.60
2023-02-26T02:02:59.297Z,0.63
2023-02-26T02:08:02.831Z,0.67
2023-02-26T02:13:22.359Z,0.70
2023-02-26T02:18:36.439Z,0.70
2023-02-26T02:23:44.427Z,0.60
2023-02-26T02:29:17.960Z,0.83
2023-02-26T02:34:25.384Z,0.73
2023-02-26T02:39:33.533Z,0.70
2023-02-26T02:44:41.074Z,0.50
2023-02-26T02:49:51.527Z,0.60
2023-02-26T02:55:00.773Z,0.40
2023-02-26T03:00:10.606Z,0.80
2023-02-26T03:05:16.530Z,0.73
2023-02-26T03:10:20.355Z,0.70
2023-02-26T03:15:32.867Z,0.70
2023-02-26T03:20:47.533Z,0.70
2023-02-26T03:25:56.193Z,0.57
2023-02-26T03:31:07.124Z,0.57
2023-02-26T03:36:16.072Z,0.60
2023-02-26T03:41:32.733Z,0.60
2023-02-26T03:46:41.054Z,0.80
2023-02-26T03:51:47.401Z,0.47
2023-02-26T03:57:09.073Z,0.70
2023-02-26T04:02:38.731Z,0.60
2023-02-26T04:07:51.333Z,0.70
2023-02-26T04:12:54.752Z,0.73
2023-02-26T04:17:58.010Z,0.60
2023-02-26T04:23:02.745Z,0.70
2023-02-26T04:28:06.006Z,0.47
2023-02-26T04:33:09.846Z,0.80
2023-02-26T04:38:14.983Z,0.43
2023-02-26T04:43:18.912Z,0.60
2023-02-26T04:48:41.710Z,0.40
2023-02-26T04:53:46.480Z,0.40
2023-02-26T04:58:50.246Z,0.70
2023-02-26T05:03:59.388Z,0.60
2023-02-26T05:09:04.069Z,0.50
2023-02-26T05:14:07.194Z,0.50
2023-02-26T05:19:10.771Z,0.40
2023-02-26T05:24:16.115Z,0.40
2023-02-26T05:29:19.585Z,0.50
2023-02-26T05:34:22.960Z,0.40
2023-02-26T05:39:27.533Z,0.43
2023-02-26T05:44:30.681Z,0.60
2023-02-26T05:49:34.232Z,0.50
2023-02-26T05:54:39.073Z,0.53
2023-02-26T05:59:42.310Z,0.43
2023-02-26T06:04:45.683Z,0.50
2023-02-26T06:09:50.088Z,0.80
2023-02-26T06:14:53.170Z,0.70
2023-02-26T06:19:56.326Z,0.57
2023-02-26T06:25:00.925Z,1.00
2023-02-26T06:30:04.681Z,0.90
2023-02-26T06:35:09.432Z,0.80
2023-02-26T06:40:15.015Z,1.20
2023-02-26T06:45:18.558Z,0.80
2023-02-26T06:50:22.364Z,1.17
2023-02-26T06:55:27.572Z,1.10
2023-02-26T07:00:30.919Z,1.00
2023-02-26T07:05:34.285Z,1.20
2023-02-26T07:10:39.571Z,1.13
2023-02-26T07:15:45.363Z,0.90
2023-02-26T07:20:50.871Z,0.67
2023-02-26T07:25:56.385Z,1.10
2023-02-26T07:30:59.666Z,0.70
2023-02-26T07:36:03.387Z,1.40
2023-02-26T07:41:08.859Z,2.00
2023-02-26T07:46:12.414Z,1.20
2023-02-26T07:51:16.264Z,0.90
2023-02-26T07:56:21.706Z,1.33
2023-02-26T08:01:24.985Z,1.20
2023-02-26T08:06:28.407Z,2.33
2023-02-26T08:11:36.656Z,2.70
2023-02-26T08:16:39.886Z,4.47
2023-02-26T08:21:43.128Z,1.70
2023-02-26T08:26:47.844Z,1.60
2023-02-26T08:31:51.189Z,1.23
2023-02-26T08:36:54.447Z,1.10
2023-02-26T08:41:59.076Z,1.00
2023-02-26T08:47:03.881Z,1.30
2023-02-26T08:52:07.548Z,1.00
2023-02-26T08:57:13.574Z,1.47
2023-02-26T09:02:16.963Z,0.60
2023-02-26T09:07:20.403Z,0.60
2023-02-26T09:12:26.049Z,0.80
2023-02-26T09:17:29.110Z,0.87
2023-02-26T09:22:32.636Z,0.90
2023-02-26T09:27:37.501Z,1.60
2023-02-26T09:32:40.908Z,0.93
2023-02-26T09:37:44.748Z,0.90
2023-02-26T09:43:05.089Z,1.40
2023-02-26T09:48:08.488Z,1.20
2023-02-26T09:53:19.209Z,3.20
2023-02-26T09:58:28.422Z,0.97
2023-02-26T10:03:36.658Z,1.40
2023-02-26T10:08:57.785Z,1.53
2023-02-26T10:14:07.473Z,1.20
2023-02-26T10:19:18.782Z,1.30
2023-02-26T10:24:25.992Z,1.63
2023-02-26T10:29:39.306Z,1.13
2023-02-26T10:34:49.052Z,1.50
2023-02-26T10:39:57.068Z,0.80
2023-02-26T10:45:12.887Z,1.10
2023-02-26T10:50:19.359Z,1.00
2023-02-26T10:55:33.802Z,0.57
2023-02-26T11:00:40.621Z,0.70
2023-02-26T11:05:44.864Z,1.00
2023-02-26T11:10:53.583Z,0.70
2023-02-26T11:16:03.465Z,0.83
2023-02-26T11:21:07.795Z,0.70
2023-02-26T11:26:19.057Z,0.77
2023-02-26T11:31:26.531Z,0.57
2023-02-26T11:36:32.485Z,1.17
2023-02-26T11:41:39.455Z,1.77
2023-02-26T11:46:50.489Z,1.07
2023-02-26T11:52:07.332Z,1.07
2023-02-26T11:57:19.005Z,0.90
2023-02-26T12:02:28.022Z,0.70
2023-02-26T12:07:32.763Z,2.03
2023-02-26T12:12:52.080Z,1.20
2023-02-26T12:18:34.186Z,0.80
2023-02-26T12:24:12.635Z,1.57
2023-02-26T12:29:34.263Z,0.77
2023-02-26T12:35:13.700Z,1.50
2023-02-26T12:40:38.488Z,1.77
2023-02-26T12:45:54.070Z,0.93
2023-02-26T12:51:06.196Z,1.10
2023-02-26T12:56:40.424Z,1.27
2023-02-26T13:02:01.869Z,0.60
2023-02-26T13:07:32.094Z,1.00
2023-02-26T13:12:46.217Z,0.97
2023-02-26T13:17:58.374Z,0.63
2023-02-26T13:23:05.920Z,0.40
2023-02-26T13:28:32.098Z,1.37
2023-02-26T13:33:37.984Z,0.70
2023-02-26T13:38:51.371Z,1.07
2023-02-26T13:44:11.791Z,1.00
2023-02-26T13:49:22.065Z,1.07
2023-02-26T13:54:42.545Z,0.47
2023-02-26T13:59:55.808Z,0.43
2023-02-26T14:05:00.974Z,0.40
2023-02-26T14:10:16.104Z,0.40
2023-02-26T14:15:30.033Z,0.53
2023-02-26T14:20:36.075Z,0.80
2023-02-26T14:25:41.109Z,0.87
2023-02-26T14:30:51.168Z,0.60
2023-02-26T14:35:55.854Z,0.70
2023-02-26T14:41:06.128Z,1.40
2023-02-26T14:46:12.509Z,6.20
2023-02-26T14:51:25.118Z,4.50
2023-02-26T14:56:40.979Z,10.00
2023-02-26T15:01:53.237Z,3.87
2023-02-26T15:07:28.233Z,1.53
2023-02-26T15:12:44.365Z,1.67
2023-02-26T15:18:15.241Z,1.50
2023-02-26T15:23:33.604Z,0.83
2023-02-26T15:28:39.996Z,2.07
2023-02-26T15:33:45.488Z,0.80
2023-02-26T15:38:51.825Z,2.10
2023-02-26T15:44:00.678Z,9.87
2023-02-26T15:49:10.881Z,10.93
2023-02-26T15:54:18.544Z,2.20
2023-02-26T15:59:27.034Z,1.30
2023-02-26T16:04:31.956Z,1.40
2023-02-26T16:09:37.495Z,3.10
2023-02-26T16:14:45.416Z,1.50
2023-02-26T16:19:52.128Z,2.50
2023-02-26T16:25:00.451Z,2.23
2023-02-26T16:30:07.601Z,3.30
2023-02-26T16:35:18.460Z,1.70
2023-02-26T16:40:26.457Z,1.07
2023-02-26T16:45:51.187Z,1.80
2023-02-26T16:51:01.330Z,1.43
2023-02-26T16:56:06.892Z,5.27
2023-02-26T17:01:16.427Z,9.70
2023-02-26T17:06:24.067Z,12.07
2023-02-26T17:11:30.692Z,2.03
2023-02-26T17:16:34.255Z,1.10
2023-02-26T17:21:44.869Z,2.90
2023-02-26T17:26:49.408Z,3.00
2023-02-26T17:31:53.246Z,3.63
2023-02-26T17:36:59.748Z,4.37
2023-02-26T17:42:03.252Z,3.87
2023-02-26T17:47:07.140Z,3.53
2023-02-26T17:52:12.478Z,3.20
2023-02-26T17:57:18.765Z,2.10
2023-02-26T18:02:25.500Z,2.33
2023-02-26T18:07:30.543Z,6.97
2023-02-26T18:12:34.436Z,7.70
2023-02-26T18:17:38.468Z,15.30
2023-02-26T18:22:43.914Z,5.03
2023-02-26T18:27:51.646Z,8.00
2023-02-26T18:32:56.096Z,15.33
2023-02-26T18:38:02.830Z,9.40
2023-02-26T18:43:06.129Z,11.43
2023-02-26T18:48:11.912Z,14.50
2023-02-26T18:53:23.276Z,37.70
2023-02-26T18:58:27.287Z,9.60
2023-02-26T19:03:30.738Z,1.70
2023-02-26T19:08:35.688Z,0.80
2023-02-26T19:13:38.814Z,0.70
2023-02-26T19:18:42.540Z,0.63
2023-02-26T19:23:48.565Z,0.80
2023-02-26T19:28:52.887Z,1.03
2023-02-26T19:33:56.115Z,0.93
2023-02-26T19:39:01.973Z,3.80
2023-02-26T19:44:05.638Z,1.53
2023-02-26T19:49:09.999Z,1.77
2023-02-26T19:54:15.038Z,1.07
2023-02-26T19:59:19.314Z,1.00
2023-02-26T20:04:22.882Z,0.93
2023-02-26T20:09:28.068Z,1.23
2023-02-26T20:14:31.300Z,1.40
2023-02-26T20:19:34.473Z,1.27
2023-02-26T20:24:39.229Z,1.50
2023-02-26T20:29:43.373Z,1.10
2023-02-26T20:34:47.185Z,3.27
2023-02-26T20:39:52.331Z,4.83
2023-02-26T20:44:55.991Z,3.77
2023-02-26T20:49:59.294Z,1.50
2023-02-26T20:55:05.361Z,1.97
2023-02-26T21:00:11.602Z,2.60
2023-02-26T21:05:16.494Z,2.80
2023-02-26T21:10:22.713Z,2.50
2023-02-26T21:15:26.590Z,3.00
2023-02-26T21:20:29.903Z,3.40
2023-02-26T21:25:35.470Z,4.33
2023-02-26T21:30:39.540Z,3.37
2023-02-26T21:35:42.778Z,4.00
2023-02-26T21:40:47.381Z,6.03
2023-02-26T21:45:50.960Z,6.47
2023-02-26T21:50:56.352Z,4.93
2023-02-26T21:56:01.099Z,3.80
2023-02-26T22:01:04.851Z,3.30
2023-02-26T22:06:08.588Z,2.97
2023-02-26T22:11:13.358Z,3.10
2023-02-26T22:16:16.987Z,4.00
2023-02-26T22:21:20.562Z,3.57
2023-02-26T22:26:25.323Z,3.40
2023-02-26T22:31:29.764Z,3.53
2023-02-26T22:36:34.729Z,3.60
2023-02-26T22:41:39.466Z,3.63
2023-02-26T22:46:42.760Z,3.60
2023-02-26T22:51:46.031Z,3.17
2023-02-26T22:56:50.786Z,2.53
2023-02-26T23:01:54.295Z,2.50
2023-02-26T23:06:57.778Z,3.40
2023-02-26T23:12:02.614Z,2.10
2023-02-26T23:17:06.424Z,1.87
2023-02-26T23:22:09.780Z,1.93
2023-02-26T23:27:14.556Z,2.07
2023-02-26T23:32:17.937Z,2.83
2023-02-26T23:37:21.430Z,2.03
2023-02-26T23:42:26.709Z,1.70
2023-02-26T23:47:29.848Z,1.60
2023-02-26T23:52:33.305Z,2.20
2023-02-26T23:57:37.910Z,2.20
